createdAt,value
2022-10-24T00:01:21.790Z,97841.03
2022-10-24T00:03:50.214Z,97841.06
2022-10-24T00:06:18.980Z,97841.41
2022-10-24T00:08:46.205Z,97852.69
2022-10-24T00:11:24.538Z,97854.16
2022-10-24T00:13:52.932Z,97859.19
2022-10-24T00:16:20.134Z,97859.78
2022-10-24T00:18:47.626Z,97851.75
2022-10-24T00:21:15.247Z,97852.28
2022-10-24T00:23:42.305Z,97853.88
2022-10-24T00:26:10.965Z,97856.09
2022-10-24T00:28:38.842Z,97857.72
2022-10-24T00:31:07.647Z,97848.63
2022-10-24T00:33:35.038Z,97854.41
2022-10-24T00:36:01.979Z,97857.44
2022-10-24T00:38:29.031Z,97857.53
2022-10-24T00:40:56.089Z,97853.41
2022-10-24T00:43:26.225Z,97866.97
2022-10-24T00:45:57.807Z,97853.72
2022-10-24T00:48:46.155Z,97869.91
2022-10-24T00:51:24.828Z,97869.53
2022-10-24T00:56:36.599Z,97868.47
2022-10-24T00:59:12.757Z,97871.06
2022-10-24T01:01:40.535Z,97868.66
2022-10-24T01:04:11.994Z,97873.47
2022-10-24T01:07:25.985Z,97870.31
2022-10-24T01:10:11.874Z,97876.94
2022-10-24T01:12:55.316Z,97878.22
2022-10-24T01:15:38.864Z,97874.16
2022-10-24T01:18:33.927Z,97875.22
2022-10-24T01:21:24.731Z,97880.94
2022-10-24T01:24:07.539Z,97874.25
2022-10-24T01:27:38.859Z,97878.50
2022-10-24T01:30:12.555Z,97881.06
2022-10-24T01:33:07.355Z,97880.16
2022-10-24T01:35:55.199Z,97874.41
2022-10-24T01:38:48.203Z,97866.28
2022-10-24T01:41:21.216Z,97865.47
2022-10-24T01:43:57.101Z,97864.34
2022-10-24T01:46:32.501Z,97863.09
2022-10-24T01:49:06.699Z,97863.75
2022-10-24T01:51:35.440Z,97872.28
2022-10-24T01:54:04.206Z,97877.81
2022-10-24T01:56:31.390Z,97874.78
2022-10-24T01:59:28.810Z,97871.13
2022-10-24T02:02:11.650Z,97863.88
2022-10-24T02:05:07.480Z,97866.59
2022-10-24T02:07:37.172Z,97868.97
2022-10-24T02:10:26.496Z,97875.75
2022-10-24T02:13:15.750Z,97871.38
2022-10-24T02:15:49.018Z,97866.28
2022-10-24T02:18:16.570Z,97868.31
2022-10-24T02:20:54.899Z,97865.31
2022-10-24T02:23:40.254Z,97871.38
2022-10-24T02:26:13.566Z,97878.78
2022-10-24T02:28:45.660Z,97873.72
2022-10-24T02:31:21.119Z,97878.13
2022-10-24T02:33:49.769Z,97878.25
2022-10-24T02:36:21.459Z,97864.16
2022-10-24T02:38:50.968Z,97867.41
2022-10-24T02:41:26.626Z,97865.19
2022-10-24T02:43:54.716Z,97871.31
2022-10-24T02:46:23.282Z,97866.41
2022-10-24T02:48:56.893Z,97858.50
2022-10-24T02:51:28.801Z,97853.59
2022-10-24T02:53:57.858Z,97846.53
2022-10-24T02:56:24.958Z,97833.75
2022-10-24T02:58:51.958Z,97826.84
2022-10-24T03:01:19.415Z,97834.06
2022-10-24T03:03:47.162Z,97831.44
2022-10-24T03:06:14.164Z,97823.25
2022-10-24T03:08:41.289Z,97817.50
2022-10-24T03:11:08.290Z,97833.38
2022-10-24T03:13:35.519Z,97836.22
2022-10-24T03:16:06.686Z,97851.69
2022-10-24T03:18:36.278Z,97848.91
2022-10-24T03:21:03.367Z,97861.44
2022-10-24T03:23:30.967Z,97850.41
2022-10-24T03:25:59.042Z,97865.19
2022-10-24T03:28:26.396Z,97876.81
2022-10-24T03:30:53.668Z,97885.28
2022-10-24T03:33:20.700Z,97863.56
2022-10-24T03:35:52.491Z,97869.00
2022-10-24T03:38:20.167Z,97851.09
2022-10-24T03:40:47.227Z,97857.22
2022-10-24T03:43:14.588Z,97854.38
2022-10-24T03:45:41.909Z,97855.94
2022-10-24T03:48:09.046Z,97852.66
2022-10-24T03:50:36.132Z,97849.19
2022-10-24T03:53:04.040Z,97867.44
2022-10-24T03:55:31.617Z,97868.66
2022-10-24T03:58:01.642Z,97862.13
2022-10-24T04:00:29.439Z,97855.78
2022-10-24T04:02:57.104Z,97864.50
2022-10-24T04:05:24.129Z,97869.09
2022-10-24T04:07:51.144Z,97873.16
2022-10-24T04:10:18.423Z,97865.94
2022-10-24T04:12:45.401Z,97866.69
2022-10-24T04:15:12.720Z,97881.06
2022-10-24T04:17:40.333Z,97880.44
2022-10-24T04:20:08.007Z,97882.00
2022-10-24T04:22:35.005Z,97879.25
2022-10-24T04:25:02.262Z,97888.31
2022-10-24T04:27:29.248Z,97883.25
2022-10-24T04:29:56.429Z,97873.88
2022-10-24T04:32:23.426Z,97875.41
2022-10-24T04:34:50.446Z,97862.50
2022-10-24T04:37:17.427Z,97854.94
2022-10-24T04:39:44.602Z,97867.50
2022-10-24T04:42:11.678Z,97860.75
2022-10-24T04:44:38.665Z,97856.19
2022-10-24T04:47:05.688Z,97851.50
2022-10-24T04:49:32.737Z,97858.47
2022-10-24T04:51:59.673Z,97853.38
2022-10-24T04:54:26.672Z,97851.00
2022-10-24T04:56:53.672Z,97847.47
2022-10-24T04:59:21.064Z,97844.97
2022-10-24T05:01:48.661Z,97850.31
2022-10-24T05:04:15.932Z,97849.84
2022-10-24T05:06:45.025Z,97851.00
2022-10-24T05:09:13.213Z,97867.13
2022-10-24T05:11:40.796Z,97870.22
2022-10-24T05:14:07.892Z,97876.53
2022-10-24T05:16:34.894Z,97872.72
2022-10-24T05:19:01.854Z,97871.06
2022-10-24T05:21:28.877Z,97876.25
2022-10-24T05:23:55.964Z,97873.34
2022-10-24T05:26:22.925Z,97868.38
2022-10-24T05:28:52.443Z,97855.44
2022-10-24T05:31:20.001Z,97848.28
2022-10-24T05:33:47.108Z,97852.00
2022-10-24T05:36:14.035Z,97855.03
2022-10-24T05:38:41.135Z,97863.16
2022-10-24T05:41:08.111Z,97875.03
2022-10-24T05:43:35.131Z,97875.94
2022-10-24T05:46:02.192Z,97881.53
2022-10-24T05:48:29.141Z,97882.59
2022-10-24T05:50:57.884Z,97886.41
2022-10-24T05:53:26.752Z,97889.69
2022-10-24T05:55:53.868Z,97902.34
2022-10-24T05:58:22.292Z,97898.81
2022-10-24T06:00:53.735Z,97907.72
2022-10-24T06:03:21.609Z,97912.72
2022-10-24T06:05:50.377Z,97920.31
2022-10-24T06:08:17.526Z,97912.66
2022-10-24T06:10:50.586Z,97934.56
2022-10-24T06:13:18.375Z,97935.31
2022-10-24T06:15:45.576Z,97932.38
2022-10-24T06:18:12.619Z,97924.53
2022-10-24T06:20:39.776Z,97928.84
2022-10-24T06:23:06.886Z,97947.75
2022-10-24T06:25:33.923Z,97979.63
2022-10-24T06:28:01.157Z,98049.22
2022-10-24T06:30:28.406Z,98137.44
2022-10-24T06:32:55.524Z,98066.41
2022-10-24T06:35:22.779Z,98056.38
2022-10-24T06:37:50.213Z,98069.94
2022-10-24T06:40:18.661Z,98063.00
2022-10-24T06:42:46.322Z,98044.81
2022-10-24T06:45:13.752Z,98015.13
2022-10-24T06:47:40.937Z,98003.63
2022-10-24T06:50:08.780Z,97990.91
2022-10-24T06:52:37.922Z,98006.94
2022-10-24T06:55:23.296Z,98015.97
2022-10-24T06:57:50.809Z,98003.06
2022-10-24T07:00:18.181Z,97999.19
2022-10-24T07:02:48.234Z,97996.03
2022-10-24T07:05:15.409Z,98000.84
2022-10-24T07:07:43.965Z,97999.34
2022-10-24T07:10:14.186Z,98014.91
2022-10-24T07:12:43.555Z,97996.91
2022-10-24T07:15:11.304Z,97990.34
2022-10-24T07:17:43.422Z,98002.03
2022-10-24T07:20:12.669Z,98024.09
2022-10-24T07:22:39.894Z,98027.28
2022-10-24T07:25:08.354Z,98039.63
2022-10-24T07:27:36.051Z,98048.16
2022-10-24T07:30:06.203Z,98053.94
2022-10-24T07:32:33.870Z,98122.44
2022-10-24T07:35:01.114Z,98036.63
2022-10-24T07:37:28.393Z,98049.22
2022-10-24T07:39:59.293Z,98087.97
2022-10-24T07:42:26.918Z,98065.25
2022-10-24T07:44:53.925Z,98049.44
2022-10-24T07:47:21.068Z,98002.94
2022-10-24T07:49:48.162Z,98011.00
2022-10-24T07:52:15.247Z,98024.09
2022-10-24T07:54:42.478Z,98018.56
2022-10-24T07:57:09.669Z,97996.66
2022-10-24T07:59:42.137Z,97993.88
2022-10-24T08:02:12.884Z,97980.97
2022-10-24T08:04:40.596Z,97991.75
2022-10-24T08:07:13.084Z,97990.06
2022-10-24T08:09:44.122Z,98005.00
2022-10-24T08:12:11.278Z,98014.44
2022-10-24T08:14:40.425Z,98021.03
2022-10-24T08:17:08.003Z,98023.06
2022-10-24T08:19:36.142Z,98031.56
2022-10-24T08:22:03.804Z,98046.75
2022-10-24T08:24:30.847Z,98042.81
2022-10-24T08:26:58.068Z,98043.16
2022-10-24T08:29:25.627Z,98052.00
2022-10-24T08:31:56.414Z,98056.41
2022-10-24T08:34:23.744Z,98031.53
2022-10-24T08:36:51.102Z,98012.53
2022-10-24T08:39:19.744Z,98002.50
2022-10-24T08:41:59.315Z,97969.78
2022-10-24T08:44:36.145Z,97965.09
2022-10-24T08:47:42.691Z,97960.97
2022-10-24T08:50:28.239Z,97961.06
2022-10-24T08:53:10.196Z,97948.94
2022-10-24T08:55:49.668Z,97945.44
2022-10-24T08:58:26.005Z,97971.63
2022-10-24T09:00:58.279Z,97991.34
2022-10-24T09:03:58.480Z,97979.84
2022-10-24T09:06:32.080Z,97990.47
2022-10-24T09:09:16.575Z,97984.28
2022-10-24T09:11:55.723Z,98012.22
2022-10-24T09:14:33.839Z,98003.59
2022-10-24T09:17:26.602Z,97984.06
2022-10-24T09:20:20.007Z,97999.81
2022-10-24T09:22:48.258Z,97988.34
2022-10-24T09:25:22.016Z,97984.75
2022-10-24T09:27:50.080Z,97998.25
2022-10-24T09:30:29.996Z,98025.00
2022-10-24T09:33:27.763Z,98026.91
2022-10-24T09:35:59.557Z,98029.72
2022-10-24T09:38:32.025Z,98024.59
2022-10-24T09:41:03.879Z,98023.69
2022-10-24T09:43:40.044Z,98028.94
2022-10-24T09:46:18.314Z,98031.97
2022-10-24T09:49:12.709Z,98051.03
2022-10-24T09:51:45.415Z,98046.63
2022-10-24T09:54:18.673Z,98036.41
2022-10-24T09:57:11.553Z,98024.00
2022-10-24T09:59:46.639Z,98019.53
2022-10-24T10:02:37.691Z,98026.13
2022-10-24T10:05:04.751Z,98012.22
2022-10-24T10:07:48.352Z,98011.88
2022-10-24T10:10:18.331Z,98017.75
2022-10-24T10:13:04.406Z,98030.03
2022-10-24T10:15:46.618Z,98024.88
2022-10-24T10:18:37.104Z,98025.69
2022-10-24T10:21:07.083Z,98038.28
2022-10-24T10:23:38.292Z,98044.66
2022-10-24T10:26:29.190Z,98033.50
2022-10-24T10:29:04.957Z,98025.53
2022-10-24T10:31:46.677Z,98032.22
2022-10-24T10:34:42.674Z,98020.22
2022-10-24T10:37:35.945Z,98024.59
2022-10-24T10:40:38.056Z,98029.16
2022-10-24T10:43:21.860Z,98033.19
2022-10-24T10:46:12.128Z,98039.63
2022-10-24T10:49:13.991Z,98013.97
2022-10-24T10:51:51.634Z,98022.31
2022-10-24T10:54:42.898Z,98020.59
2022-10-24T10:57:17.631Z,98023.84
2022-10-24T10:59:58.981Z,98021.84
2022-10-24T11:02:57.545Z,98019.09
2022-10-24T11:05:53.641Z,98040.63
2022-10-24T11:08:39.660Z,98048.75
2022-10-24T11:11:46.834Z,98053.66
2022-10-24T11:14:32.384Z,98051.88
2022-10-24T11:17:11.714Z,98062.63
2022-10-24T11:19:50.003Z,98058.84
2022-10-24T11:22:27.918Z,98062.41
2022-10-24T11:25:09.023Z,98068.78
2022-10-24T11:27:45.314Z,98051.38
2022-10-24T11:30:17.577Z,98055.75
2022-10-24T11:33:03.971Z,98063.91
2022-10-24T11:35:37.199Z,98088.44
2022-10-24T11:38:16.159Z,98072.53
2022-10-24T11:40:46.583Z,98066.16
2022-10-24T11:43:39.184Z,98065.94
2022-10-24T11:46:25.213Z,98050.69
2022-10-24T11:49:03.717Z,98055.78
2022-10-24T11:51:39.204Z,98048.19
2022-10-24T11:54:26.551Z,98035.31
2022-10-24T11:57:11.699Z,98038.63
2022-10-24T11:59:42.432Z,98031.47
2022-10-24T12:02:53.699Z,98017.13
2022-10-24T12:06:09.186Z,98025.84
2022-10-24T12:09:18.964Z,98016.72
2022-10-24T12:12:13.584Z,98017.31
2022-10-24T12:15:17.349Z,98010.97
2022-10-24T12:18:12.055Z,98014.94
2022-10-24T12:20:40.726Z,98002.31
2022-10-24T12:23:18.991Z,98002.69
2022-10-24T12:25:48.972Z,97995.88
2022-10-24T12:28:25.755Z,98004.81
2022-10-24T12:31:15.336Z,97983.19
2022-10-24T12:33:44.837Z,98000.50
2022-10-24T12:36:12.461Z,97985.47
2022-10-24T12:38:58.009Z,97978.03
2022-10-24T12:41:42.996Z,97990.84
2022-10-24T12:44:34.532Z,97994.78
2022-10-24T12:47:26.725Z,97998.16
2022-10-24T12:49:54.402Z,97992.97
2022-10-24T12:52:30.693Z,97993.00
2022-10-24T12:54:59.894Z,97990.00
2022-10-24T12:57:37.561Z,97989.56
2022-10-24T13:00:29.849Z,97990.00
2022-10-24T13:03:44.862Z,98000.84
2022-10-24T13:06:23.620Z,98012.88
2022-10-24T13:09:21.670Z,98013.94
2022-10-24T13:12:20.771Z,98011.00
2022-10-24T13:15:15.452Z,98028.00
2022-10-24T13:18:18.029Z,98017.34
2022-10-24T13:20:50.564Z,98013.19
2022-10-24T13:23:28.593Z,98013.34
2022-10-24T13:25:58.846Z,98002.28
2022-10-24T13:28:27.405Z,98007.91
2022-10-24T13:31:01.121Z,97998.78
2022-10-24T13:33:35.180Z,97991.78
2022-10-24T13:36:14.916Z,97998.34
2022-10-24T13:38:54.643Z,98002.53
2022-10-24T13:41:40.468Z,98006.41
2022-10-24T13:44:35.494Z,98005.00
2022-10-24T13:47:21.513Z,98006.31
2022-10-24T13:49:59.537Z,97991.78
2022-10-24T13:52:50.301Z,97995.94
2022-10-24T13:55:36.411Z,98012.19
2022-10-24T13:58:06.390Z,98011.81
2022-10-24T14:00:39.924Z,98009.31
2022-10-24T14:03:24.399Z,98004.50
2022-10-24T14:06:00.926Z,98013.94
2022-10-24T14:08:33.601Z,98014.59
2022-10-24T14:11:05.857Z,98016.03
2022-10-24T14:13:47.986Z,98022.75
2022-10-24T14:16:15.489Z,98026.41
2022-10-24T14:18:44.702Z,98022.56
2022-10-24T14:21:22.611Z,98025.84
2022-10-24T14:24:01.765Z,98019.69
2022-10-24T14:26:29.630Z,98027.09
2022-10-24T14:29:01.007Z,98015.91
2022-10-24T14:31:35.860Z,98023.41
2022-10-24T14:34:06.252Z,98020.09
2022-10-24T14:36:38.106Z,98019.34
2022-10-24T14:39:06.299Z,98026.53
2022-10-24T14:41:43.258Z,98012.16
2022-10-24T14:44:15.646Z,98012.06
2022-10-24T14:46:45.439Z,98019.03
2022-10-24T14:49:27.411Z,98018.88
2022-10-24T14:52:00.620Z,98011.88
2022-10-24T14:54:33.268Z,98006.78
2022-10-24T14:57:04.444Z,98003.22
2022-10-24T14:59:37.959Z,97995.91
2022-10-24T15:02:32.626Z,97997.06
2022-10-24T15:05:24.548Z,98005.16
2022-10-24T15:08:23.190Z,98013.09
2022-10-24T15:11:04.278Z,98009.34
2022-10-24T15:13:48.221Z,98018.00
2022-10-24T15:16:31.968Z,98013.44
2022-10-24T15:18:59.712Z,98015.91
2022-10-24T15:21:41.772Z,98006.72
2022-10-24T15:24:24.567Z,98006.16
2022-10-24T15:26:51.994Z,98016.69
2022-10-24T15:29:22.868Z,98005.50
2022-10-24T15:31:51.972Z,98009.06
2022-10-24T15:34:23.898Z,98017.38
2022-10-24T15:36:52.869Z,98010.09
2022-10-24T15:39:24.687Z,98013.63
2022-10-24T15:41:52.713Z,98025.44
2022-10-24T15:44:25.685Z,98029.38
2022-10-24T15:46:53.667Z,98030.19
2022-10-24T15:49:20.908Z,98034.19
2022-10-24T15:51:50.607Z,98032.00
2022-10-24T15:54:22.126Z,98043.94
2022-10-24T15:56:50.165Z,98039.38
2022-10-24T15:59:19.801Z,98037.94
2022-10-24T16:01:54.910Z,98050.16
2022-10-24T16:04:24.111Z,98047.75
2022-10-24T16:06:52.587Z,98043.88
2022-10-24T16:09:26.632Z,98054.78
2022-10-24T16:11:55.114Z,98048.00
2022-10-24T16:14:26.183Z,98041.66
2022-10-24T16:16:56.422Z,98027.19
2022-10-24T16:19:29.055Z,98035.66
2022-10-24T16:22:01.204Z,98041.84
2022-10-24T16:24:28.983Z,98049.44
2022-10-24T16:26:56.876Z,98053.22
2022-10-24T16:29:24.043Z,98043.63
2022-10-24T16:31:51.187Z,98049.22
2022-10-24T16:34:21.776Z,98042.16
2022-10-24T16:36:53.486Z,98056.09
2022-10-24T16:39:21.595Z,98061.00
2022-10-24T16:41:48.576Z,98062.31
2022-10-24T16:44:15.847Z,98069.16
2022-10-24T16:46:45.457Z,98076.31
2022-10-24T16:49:12.607Z,98085.34
2022-10-24T16:51:43.246Z,98082.28
2022-10-24T16:54:11.370Z,98076.78
2022-10-24T16:56:38.695Z,98065.78
2022-10-24T16:59:05.847Z,98065.44
2022-10-24T17:01:33.353Z,98078.47
2022-10-24T17:04:01.358Z,98087.97
2022-10-24T17:06:29.239Z,98091.72
2022-10-24T17:08:56.367Z,98089.47
2022-10-24T17:11:44.479Z,98091.25
2022-10-24T17:14:10.625Z,98092.72
2022-10-24T17:16:37.898Z,98089.38
2022-10-24T17:19:15.106Z,98101.72
2022-10-24T17:21:43.318Z,98134.06
2022-10-24T17:24:14.483Z,98095.31
2022-10-24T17:26:42.307Z,98084.19
2022-10-24T17:29:15.691Z,98082.69
2022-10-24T17:31:43.002Z,98096.31
2022-10-24T17:34:10.681Z,98098.31
2022-10-24T17:36:39.176Z,98117.66
2022-10-24T17:39:40.418Z,98110.88
2022-10-24T17:42:10.677Z,98126.78
2022-10-24T17:44:38.377Z,98118.38
2022-10-24T17:47:06.311Z,98123.66
2022-10-24T17:49:33.340Z,98137.78
2022-10-24T17:52:00.972Z,98132.34
2022-10-24T17:54:28.317Z,98115.56
2022-10-24T17:56:55.678Z,98106.88
2022-10-24T17:59:23.199Z,98115.22
2022-10-24T18:01:50.535Z,98111.81
2022-10-24T18:04:17.786Z,98110.06
2022-10-24T18:06:44.872Z,98102.06
2022-10-24T18:09:12.633Z,98125.03
2022-10-24T18:11:40.203Z,98137.28
2022-10-24T18:14:07.955Z,98145.50
2022-10-24T18:16:38.094Z,98152.59
2022-10-24T18:19:06.211Z,98139.72
2022-10-24T18:21:33.524Z,98145.97
2022-10-24T18:24:00.601Z,98186.19
2022-10-24T18:26:28.435Z,98243.75
2022-10-24T18:28:56.495Z,98606.19
2022-10-24T18:31:26.972Z,98592.88
2022-10-24T18:33:55.141Z,62700.25
2022-10-24T18:36:25.000Z,62700.25
2022-10-24T18:38:55.381Z,62700.25
2022-10-24T18:41:31.020Z,62700.25
2022-10-24T18:44:03.976Z,62700.25
2022-10-24T18:46:32.349Z,62700.25
2022-10-24T18:49:00.210Z,62700.25
2022-10-24T18:51:36.260Z,62700.25
2022-10-24T18:54:07.932Z,62700.25
2022-10-24T18:56:35.470Z,62700.25
2022-10-24T18:59:02.694Z,62700.25
2022-10-24T19:01:54.900Z,62700.25
